Minneapolis, Minnesota
Traffic Map
Current Weather Conditions
Minneapolis, Minnesota
Clear
Clear
-6°
Feels Like: -12°
Wind Chill: -12° Ceiling: Unl
Heat Index: -6° Visibility: 10mi
Dew Point: -16° Wind: 10mph
Humidity: 46% Direction: 320° (NW)
Pressure: 29.95in Gusts: 0mph
Raw Report DataKMSP 251553Z 32009KT 10SM CLR M06/M16 A2995 RMK AO2 SLP156 T10611161
Traffic Incident Summary
Active as of:
Severity:
Category:
InformationThere was an issue retrieving the traffic information for this location. Please try a different location or try again shortly.
Advertisements
Track Severe Weather on mobile